Time;durP1;ratioP1;P1;durP2;ratioP2;P2;SDS_P1;SDS_P2;PMS_P1;PMS_P2;Temp;Humidity;BMP_temperature;BMP_pressure;BME280_temperature;BME280_humidity;BME280_pressure;Samples;Min_cycle;Max_cycle;Signal;HPM_P1;HPM_P2
2023/04/08 00:00:11;;;;;;;5.10;3.97;;;11.90;75.20;;;;;;5021905;28;20371;-85
2023/04/08 00:02:38;;;;;;;5.60;4.15;;;11.90;75.20;;;;;;5006193;28;20029;-84
2023/04/08 00:05:05;;;;;;;5.45;4.60;;;11.90;75.30;;;;;;5038661;28;20353;-83
2023/04/08 00:07:31;;;;;;;5.38;4.10;;;11.90;75.30;;;;;;5005309;28;20056;-83
2023/04/08 00:09:57;;;;;;;5.38;4.13;;;11.90;75.30;;;;;;5021515;28;20072;-83
2023/04/08 00:12:22;;;;;;;5.18;4.25;;;11.80;75.30;;;;;;5021521;28;20037;-83
2023/04/08 00:14:48;;;;;;;5.18;4.15;;;11.80;75.30;;;;;;5021316;28;20021;-83
2023/04/08 00:17:14;;;;;;;5.38;4.30;;;11.80;75.30;;;;;;5021125;28;20059;-83
2023/04/08 00:19:40;;;;;;;5.40;4.20;;;11.80;75.30;;;;;;5021339;28;20060;-83
2023/04/08 00:22:06;;;;;;;4.97;3.95;;;11.80;75.30;;;;;;5021122;28;20053;-84
2023/04/08 00:24:31;;;;;;;5.35;4.25;;;11.80;75.30;;;;;;5022159;28;20095;-84
2023/04/08 00:26:57;;;;;;;5.00;3.97;;;11.70;75.30;;;;;;5005248;28;20029;-83
2023/04/08 00:29:23;;;;;;;4.97;3.75;;;11.70;75.30;;;;;;5020864;28;20021;-84
2023/04/08 00:31:49;;;;;;;5.13;4.03;;;11.70;75.30;;;;;;5021124;28;20088;-84
2023/04/08 00:34:15;;;;;;;5.40;4.20;;;11.70;75.40;;;;;;5021314;28;20376;-84
2023/04/08 00:36:41;;;;;;;5.05;3.85;;;11.70;75.40;;;;;;5037897;28;20012;-84
2023/04/08 00:39:06;;;;;;;5.32;4.13;;;11.70;75.40;;;;;;5037707;28;20083;-83
2023/04/08 00:41:34;;;;;;;5.18;4.05;;;11.60;75.40;;;;;;5004885;28;20543;-84
2023/04/08 00:44:00;;;;;;;4.90;3.95;;;11.60;75.40;;;;;;5021136;28;20144;-83
2023/04/08 00:46:26;;;;;;;4.80;3.78;;;11.60;75.40;;;;;;5005310;28;20453;-83
2023/04/08 00:48:55;;;;;;;5.20;4.03;;;11.60;75.40;;;;;;5037790;28;20033;-85
2023/04/08 00:51:21;;;;;;;4.57;3.65;;;11.60;75.50;;;;;;5020827;28;20567;-82
2023/04/08 00:53:47;;;;;;;5.25;4.13;;;11.60;75.50;;;;;;5037201;28;20106;-83
2023/04/08 00:56:13;;;;;;;4.95;4.10;;;11.60;75.50;;;;;;5021889;28;20033;-83
2023/04/08 00:58:39;;;;;;;5.05;3.97;;;11.50;75.50;;;;;;5020952;28;20017;-83
2023/04/08 01:01:12;;;;;;;5.20;4.10;;;11.50;75.50;;;;;;5020436;28;20040;-83
2023/04/08 01:04:06;;;;;;;5.40;4.10;;;11.50;75.60;;;;;;5021117;28;20036;-86
2023/04/08 01:06:52;;;;;;;4.90;3.80;;;11.50;75.70;;;;;;5020725;28;20033;-83
2023/04/08 01:09:22;;;;;;;4.25;3.25;;;11.50;75.60;;;;;;5037367;28;20120;-84
2023/04/08 01:11:50;;;;;;;5.28;4.15;;;11.50;75.60;;;;;;5020685;28;20492;-83
2023/04/08 01:14:20;;;;;;;5.00;3.90;;;11.40;76.20;;;;;;5020307;28;20024;-84
2023/04/08 01:16:47;;;;;;;5.18;4.15;;;11.40;75.70;;;;;;5036950;28;20044;-83
2023/04/08 01:19:25;;;;;;;4.85;3.90;;;11.40;75.70;;;;;;5020352;28;20040;-83
2023/04/08 01:21:53;;;;;;;4.45;3.63;;;11.40;75.80;;;;;;5020535;28;20119;-83
2023/04/08 01:24:27;;;;;;;4.90;4.20;;;11.30;75.70;;;;;;5020203;28;20032;-83
2023/04/08 01:26:57;;;;;;;5.50;4.32;;;11.40;75.70;;;;;;5036999;28;20112;-83
2023/04/08 01:29:25;;;;;;;5.47;4.30;;;11.30;75.70;;;;;;5004007;28;20041;-84
2023/04/08 01:31:53;;;;;;;5.15;4.20;;;11.30;75.70;;;;;;5036263;28;20110;-84
2023/04/08 01:34:21;;;;;;;4.90;4.03;;;11.30;75.70;;;;;;5019576;28;20059;-85
2023/04/08 01:36:48;;;;;;;4.82;3.75;;;11.30;75.80;;;;;;5020039;28;20046;-84
2023/04/08 01:39:16;;;;;;;4.65;3.63;;;11.30;75.80;;;;;;5019577;28;20124;-84
2023/04/08 01:41:45;;;;;;;4.57;3.80;;;11.20;75.70;;;;;;5036187;28;20123;-83
2023/04/08 01:44:12;;;;;;;5.07;3.92;;;11.20;75.80;;;;;;5036311;28;20112;-85
2023/04/08 01:46:41;;;;;;;4.50;3.75;;;11.20;75.80;;;;;;5020289;28;20028;-85
2023/04/08 01:49:08;;;;;;;5.15;3.97;;;11.20;75.90;;;;;;5019702;28;20025;-85
2023/04/08 01:51:37;;;;;;;4.68;3.67;;;11.20;75.90;;;;;;5019557;28;20073;-84
2023/04/08 01:54:02;;;;;;;4.72;3.50;;;11.10;75.90;;;;;;5019772;28;20461;-85
2023/04/08 01:56:31;;;;;;;5.55;4.13;;;11.10;75.90;;;;;;5019410;28;20081;-83
2023/04/08 01:59:00;;;;;;;4.85;4.00;;;11.10;75.90;;;;;;5003392;28;20025;-84
2023/04/08 02:01:28;;;;;;;4.70;3.80;;;11.10;75.90;;;;;;5019507;28;20036;-83
2023/04/08 02:03:56;;;;;;;4.75;3.75;;;11.10;75.90;;;;;;5019451;28;20025;-83
2023/04/08 02:06:25;;;;;;;5.00;3.80;;;11.10;75.90;;;;;;5019570;28;20035;-83
2023/04/08 02:08:51;;;;;;;4.55;3.70;;;11.00;75.90;;;;;;5035879;28;20075;-83
2023/04/08 02:11:20;;;;;;;4.43;3.45;;;11.00;75.90;;;;;;5003819;28;20509;-84
2023/04/08 02:13:46;;;;;;;4.90;3.85;;;11.00;75.90;;;;;;5019561;28;20033;-83
2023/04/08 02:16:18;;;;;;;4.53;3.45;;;11.00;76.00;;;;;;5003058;28;20040;-84
2023/04/08 02:18:57;;;;;;;4.70;3.63;;;11.00;76.00;;;;;;5019511;28;20028;-83
2023/04/08 02:21:31;;;;;;;4.68;3.70;;;11.00;76.00;;;;;;5019521;28;20573;-83
2023/04/08 02:24:00;;;;;;;4.20;3.60;;;10.90;76.10;;;;;;5019628;28;20029;-84
2023/04/08 02:26:26;;;;;;;4.30;3.53;;;10.90;76.00;;;;;;5035897;28;20087;-84
2023/04/08 02:28:56;;;;;;;4.65;3.58;;;10.90;76.10;;;;;;5019599;28;20119;-85
2023/04/08 02:31:23;;;;;;;4.72;3.50;;;10.90;76.20;;;;;;5018847;28;20137;-83
2023/04/08 02:33:50;;;;;;;5.03;3.85;;;10.80;76.10;;;;;;5019193;28;20069;-84
2023/04/08 02:36:16;;;;;;;4.15;3.28;;;10.80;76.10;;;;;;5053491;28;20131;-84
2023/04/08 02:38:48;;;;;;;4.55;3.40;;;10.80;76.80;;;;;;5005981;28;20059;-83
2023/04/08 02:41:15;;;;;;;4.57;3.58;;;10.70;76.20;;;;;;5040188;28;20056;-84
2023/04/08 02:43:41;;;;;;;4.78;3.65;;;10.70;76.20;;;;;;5023995;28;20477;-85
2023/04/08 02:46:09;;;;;;;4.93;3.78;;;10.70;76.20;;;;;;5039562;28;20059;-85
2023/04/08 02:48:35;;;;;;;4.70;3.58;;;10.70;76.20;;;;;;5023446;28;20021;-84
2023/04/08 02:51:01;;;;;;;4.30;3.40;;;10.70;76.20;;;;;;5006368;28;20136;-83
2023/04/08 02:53:27;;;;;;;4.68;3.60;;;10.60;76.20;;;;;;5023941;28;20102;-84
2023/04/08 02:55:53;;;;;;;4.22;3.42;;;10.60;76.20;;;;;;5006425;28;20025;-84
2023/04/08 02:58:19;;;;;;;4.78;3.67;;;10.60;76.20;;;;;;5039479;28;20022;-84
2023/04/08 03:00:45;;;;;;;4.43;3.55;;;10.50;76.20;;;;;;5023135;28;20037;-82
2023/04/08 03:03:11;;;;;;;5.00;3.70;;;10.50;76.10;;;;;;5039323;28;20036;-83
2023/04/08 03:05:36;;;;;;;3.92;3.05;;;10.50;76.20;;;;;;5007405;28;20037;-83
2023/04/08 03:08:03;;;;;;;4.45;3.55;;;10.50;76.20;;;;;;5022737;28;20032;-83
2023/04/08 03:10:28;;;;;;;4.88;3.40;;;10.50;76.30;;;;;;5007308;28;20110;-82
2023/04/08 03:12:54;;;;;;;4.18;3.40;;;10.50;76.30;;;;;;5022515;28;20479;-83
2023/04/08 03:15:20;;;;;;;4.40;3.53;;;10.40;76.20;;;;;;5039178;28;20026;-83
2023/04/08 03:17:46;;;;;;;4.00;3.40;;;10.40;76.20;;;;;;5022237;28;20488;-83
2023/04/08 03:20:12;;;;;;;4.60;3.40;;;10.40;76.30;;;;;;5022446;28;20102;-83
2023/04/08 03:22:38;;;;;;;3.90;3.05;;;10.40;76.30;;;;;;5006877;28;20021;-83
2023/04/08 03:25:04;;;;;;;4.20;3.20;;;10.30;76.30;;;;;;5038638;28;20107;-83
2023/04/08 03:27:30;;;;;;;4.35;3.35;;;10.30;76.30;;;;;;5006439;28;20419;-83
2023/04/08 03:29:56;;;;;;;4.40;3.50;;;10.30;76.30;;;;;;5022233;28;20037;-83
2023/04/08 03:32:22;;;;;;;4.03;3.30;;;10.20;76.20;;;;;;5005947;28;20458;-83
2023/04/08 03:34:50;;;;;;;4.80;3.53;;;10.20;76.20;;;;;;5006187;28;20389;-84
2023/04/08 03:37:18;;;;;;;3.95;3.20;;;10.20;76.20;;;;;;5006585;28;20029;-84
2023/04/08 03:39:45;;;;;;;4.18;3.40;;;10.20;76.30;;;;;;5022254;28;20025;-84
2023/04/08 03:42:11;;;;;;;4.32;3.42;;;10.10;76.30;;;;;;5023118;28;20032;-84
2023/04/08 03:44:36;;;;;;;4.68;3.50;;;10.10;76.30;;;;;;5038555;28;20024;-83
2023/04/08 03:47:02;;;;;;;3.53;3.00;;;10.10;76.30;;;;;;5006678;28;20346;-84
2023/04/08 03:49:28;;;;;;;3.95;3.22;;;10.10;76.30;;;;;;5021742;28;20064;-84
2023/04/08 03:51:54;;;;;;;3.72;2.95;;;10.00;76.20;;;;;;5006167;28;20033;-83
2023/04/08 03:54:19;;;;;;;5.18;3.83;;;10.00;76.20;;;;;;5038209;28;20029;-83
2023/04/08 03:56:45;;;;;;;4.03;3.20;;;10.00;76.30;;;;;;5022024;28;20071;-83
2023/04/08 03:59:11;;;;;;;4.07;3.30;;;10.00;76.30;;;;;;5005647;28;20033;-86
2023/04/08 04:01:37;;;;;;;4.15;3.28;;;9.90;76.20;;;;;;5038397;28;20029;-84
2023/04/08 04:04:03;;;;;;;4.40;3.42;;;9.90;76.20;;;;;;5005714;28;20044;-85
2023/04/08 04:06:29;;;;;;;4.78;3.63;;;9.90;76.30;;;;;;5022802;28;20116;-83
2023/04/08 04:08:54;;;;;;;4.25;3.35;;;9.90;76.30;;;;;;5005362;28;20071;-83
2023/04/08 04:11:21;;;;;;;4.50;3.50;;;9.80;76.30;;;;;;5037898;28;20032;-83
2023/04/08 04:13:47;;;;;;;4.05;3.17;;;9.90;76.30;;;;;;5021762;28;20044;-84
2023/04/08 04:16:13;;;;;;;4.63;3.45;;;9.80;76.30;;;;;;5022026;28;20028;-84
2023/04/08 04:18:39;;;;;;;3.95;3.42;;;9.70;76.20;;;;;;5022429;28;20538;-83
2023/04/08 04:21:06;;;;;;;4.45;3.53;;;9.70;76.30;;;;;;5004901;28;20033;-85
2023/04/08 04:23:32;;;;;;;4.20;3.45;;;9.70;76.30;;;;;;5037942;28;20083;-84
2023/04/08 04:25:58;;;;;;;4.25;3.38;;;9.60;76.20;;;;;;5037777;28;20040;-83
2023/04/08 04:28:23;;;;;;;4.88;3.45;;;9.70;76.30;;;;;;5021512;28;20381;-83
2023/04/08 04:30:49;;;;;;;4.22;3.17;;;9.60;76.20;;;;;;5021049;28;20440;-84
2023/04/08 04:33:15;;;;;;;4.15;3.28;;;9.60;76.20;;;;;;5005189;28;20029;-83
2023/04/08 04:35:41;;;;;;;4.45;3.63;;;9.60;76.20;;;;;;5022233;28;20037;-83
2023/04/08 04:38:11;;;;;;;4.10;3.35;;;9.60;76.30;;;;;;5021485;28;20056;-84
2023/04/08 04:40:40;;;;;;;5.30;3.60;;;9.50;76.20;;;;;;5037934;28;20060;-83
2023/04/08 04:43:06;;;;;;;4.78;3.22;;;9.50;76.20;;;;;;5021277;28;20021;-84
2023/04/08 04:45:31;;;;;;;4.32;3.38;;;9.50;76.20;;;;;;5021187;28;20048;-84
2023/04/08 04:47:57;;;;;;;5.10;3.80;;;9.40;76.20;;;;;;5037681;28;20024;-85
2023/04/08 04:50:23;;;;;;;4.03;3.30;;;9.40;76.20;;;;;;5021652;28;20524;-83
2023/04/08 04:52:49;;;;;;;4.35;3.63;;;9.40;76.20;;;;;;5005248;28;20060;-84
2023/04/08 04:55:14;;;;;;;4.57;3.28;;;9.40;76.30;;;;;;5037437;28;20029;-84
2023/04/08 04:57:40;;;;;;;4.53;3.60;;;9.30;76.20;;;;;;5021626;28;20044;-83
2023/04/08 05:00:07;;;;;;;4.22;3.30;;;9.30;76.20;;;;;;5003704;28;20033;-85
2023/04/08 05:02:33;;;;;;;4.90;3.83;;;9.30;76.20;;;;;;5021503;28;20116;-84
2023/04/08 05:04:59;;;;;;;5.15;4.10;;;9.20;76.20;;;;;;5037516;28;20060;-84
2023/04/08 05:07:25;;;;;;;4.65;3.55;;;9.20;76.20;;;;;;5037307;28;20488;-83
2023/04/08 05:09:50;;;;;;;5.00;3.95;;;9.20;76.20;;;;;;5037355;28;20047;-83
2023/04/08 05:12:16;;;;;;;4.38;3.47;;;9.20;76.20;;;;;;5021082;28;20091;-84
2023/04/08 05:14:42;;;;;;;4.38;3.65;;;9.10;76.20;;;;;;5021392;28;20110;-84
2023/04/08 05:17:08;;;;;;;4.15;3.50;;;9.20;76.20;;;;;;5005143;28;20029;-84
2023/04/08 05:19:34;;;;;;;4.60;3.40;;;9.10;76.20;;;;;;5037244;28;20024;-83
2023/04/08 05:22:00;;;;;;;4.32;3.33;;;9.10;76.20;;;;;;5021084;28;20499;-83
2023/04/08 05:24:26;;;;;;;4.32;3.45;;;9.00;76.20;;;;;;5036908;28;20025;-83
2023/04/08 05:26:52;;;;;;;5.40;4.10;;;9.00;76.20;;;;;;5004186;28;20033;-85
2023/04/08 05:29:18;;;;;;;4.13;3.53;;;9.00;76.20;;;;;;5021043;28;20029;-84
2023/04/08 05:31:44;;;;;;;4.72;3.58;;;9.00;76.20;;;;;;5036635;28;20056;-84
2023/04/08 05:34:10;;;;;;;4.40;3.38;;;8.90;76.10;;;;;;5054278;28;20323;-84
2023/04/08 05:36:36;;;;;;;4.97;3.70;;;8.90;76.10;;;;;;5004817;28;20450;-84
2023/04/08 05:39:02;;;;;;;4.97;3.60;;;8.90;76.10;;;;;;5020698;28;20425;-84
2023/04/08 05:41:28;;;;;;;4.05;3.55;;;8.90;76.10;;;;;;5004129;28;20090;-84
2023/04/08 05:43:54;;;;;;;4.78;4.00;;;8.90;76.10;;;;;;5003780;28;20025;-84
2023/04/08 05:46:20;;;;;;;4.70;3.75;;;8.80;76.00;;;;;;5020565;28;20119;-85
2023/04/08 05:48:46;;;;;;;5.07;4.10;;;8.80;76.10;;;;;;5005015;28;20115;-83
2023/04/08 05:51:16;;;;;;;4.70;3.88;;;8.80;76.10;;;;;;5054835;28;20354;-83
2023/04/08 05:53:44;;;;;;;4.78;3.78;;;8.80;76.10;;;;;;5037185;28;20206;-83
2023/04/08 05:56:09;;;;;;;5.25;3.92;;;8.70;76.00;;;;;;5021452;28;20028;-83
2023/04/08 05:58:35;;;;;;;5.57;4.43;;;8.70;76.00;;;;;;5020284;28;20560;-82
2023/04/08 06:01:01;;;;;;;4.88;3.88;;;8.70;76.00;;;;;;5003909;28;20424;-83
2023/04/08 06:03:27;;;;;;;5.05;3.85;;;8.60;76.00;;;;;;5004163;28;20127;-82
2023/04/08 06:05:52;;;;;;;5.10;4.28;;;8.60;76.00;;;;;;5020073;28;20029;-80
2023/04/08 06:08:19;;;;;;;5.28;4.30;;;8.60;76.00;;;;;;5019770;28;20079;-83
2023/04/08 06:10:49;;;;;;;5.25;4.28;;;8.60;76.00;;;;;;5003599;28;20032;-85
2023/04/08 06:13:15;;;;;;;5.70;4.40;;;8.60;76.00;;;;;;5019976;28;20098;-83
2023/04/08 06:15:41;;;;;;;5.75;4.45;;;8.60;76.00;;;;;;5019720;28;20029;-82
2023/04/08 06:18:07;;;;;;;5.80;4.55;;;8.60;76.00;;;;;;5019769;28;20120;-83
2023/04/08 06:20:35;;;;;;;5.25;4.25;;;8.60;76.00;;;;;;5019801;28;20052;-83
2023/04/08 06:23:01;;;;;;;5.43;4.35;;;8.50;76.00;;;;;;5003560;28;20025;-83
2023/04/08 06:25:26;;;;;;;5.72;4.60;;;8.50;76.00;;;;;;5035938;28;20032;-83
2023/04/08 06:27:52;;;;;;;5.93;4.70;;;8.50;76.00;;;;;;5004092;28;20098;-84
2023/04/08 06:30:18;;;;;;;5.28;4.47;;;8.50;76.00;;;;;;4986924;28;20049;-83
2023/04/08 06:32:46;;;;;;;5.82;4.60;;;8.50;76.00;;;;;;5036092;28;20037;-84
2023/04/08 06:35:12;;;;;;;5.93;4.90;;;8.50;76.00;;;;;;5003818;28;20044;-84
2023/04/08 06:37:38;;;;;;;5.68;4.68;;;8.50;76.00;;;;;;5035921;28;20416;-84
2023/04/08 06:40:05;;;;;;;5.65;4.63;;;8.50;76.00;;;;;;5020455;28;20035;-85
2023/04/08 06:42:31;;;;;;;5.50;4.38;;;8.50;76.00;;;;;;5003273;28;20027;-83
2023/04/08 06:45:15;;;;;;;5.75;4.93;;;8.40;75.90;;;;;;5021371;28;20040;-82
2023/04/08 06:47:41;;;;;;;5.95;4.72;;;8.40;75.90;;;;;;5019810;28;20033;-83
2023/04/08 06:50:07;;;;;;;5.70;4.80;;;8.40;75.90;;;;;;5002910;28;20025;-83
2023/04/08 06:52:33;;;;;;;6.38;4.93;;;8.40;75.90;;;;;;5003270;28;20045;-82
2023/04/08 06:54:59;;;;;;;6.30;5.15;;;8.40;76.00;;;;;;5035325;28;20492;-81
2023/04/08 06:57:25;;;;;;;6.18;4.80;;;8.40;76.00;;;;;;5003089;28;20029;-88
2023/04/08 06:59:52;;;;;;;6.07;4.88;;;8.40;76.00;;;;;;5003112;28;20056;-87
2023/04/08 07:02:18;;;;;;;6.90;5.60;;;8.40;76.00;;;;;;5035913;28;20022;-82
2023/04/08 07:04:44;;;;;;;6.15;5.20;;;8.40;76.00;;;;;;5018689;28;20194;-92
2023/04/08 07:07:10;;;;;;;6.28;5.28;;;8.40;76.00;;;;;;5018619;28;20067;-85
2023/04/08 07:09:36;;;;;;;6.32;5.18;;;8.40;76.00;;;;;;5001974;28;20049;-84
2023/04/08 07:12:03;;;;;;;5.82;4.75;;;8.40;76.00;;;;;;5034658;28;20037;-87
2023/04/08 07:14:29;;;;;;;6.20;5.00;;;8.40;76.00;;;;;;5002426;28;20086;-89
2023/04/08 07:16:55;;;;;;;6.30;5.35;;;8.40;76.00;;;;;;5052364;28;20093;-84
2023/04/08 07:19:23;;;;;;;6.40;5.30;;;8.40;76.00;;;;;;5001944;28;20028;-84
2023/04/08 07:21:49;;;;;;;5.85;5.03;;;8.40;76.00;;;;;;5035141;28;20178;-85
2023/04/08 07:24:15;;;;;;;6.88;5.22;;;8.40;76.00;;;;;;5020742;28;20021;-84
2023/04/08 07:26:41;;;;;;;6.38;5.65;;;8.40;76.00;;;;;;5006181;28;20048;-86
2023/04/08 07:29:07;;;;;;;6.13;5.18;;;8.40;76.00;;;;;;5038917;28;20013;-84
2023/04/08 07:31:33;;;;;;;5.97;4.85;;;8.40;76.00;;;;;;5035280;28;20068;-84
2023/04/08 07:33:59;;;;;;;6.22;5.22;;;8.40;76.00;;;;;;5019157;28;20034;-87
2023/04/08 07:36:32;;;;;;;6.32;5.05;;;8.40;76.00;;;;;;5036730;28;20438;-88
2023/04/08 07:38:58;;;;;;;6.85;5.15;;;8.40;76.00;;;;;;5020207;28;20461;-86
2023/04/08 07:41:24;;;;;;;6.70;5.47;;;8.40;76.00;;;;;;5003160;28;20061;-85
2023/04/08 07:46:44;;;;;;;5.65;4.55;;;8.50;76.00;;;;;;5036294;28;20104;-87
2023/04/08 07:49:19;;;;;;;6.70;4.97;;;8.40;76.00;;;;;;5020099;28;20441;-86
2023/04/08 07:51:52;;;;;;;7.35;4.97;;;8.40;75.90;;;;;;5019183;28;20038;-88
2023/04/08 07:54:22;;;;;;;6.15;4.88;;;8.50;76.00;;;;;;5035918;28;20096;-89
2023/04/08 07:57:02;;;;;;;5.95;5.07;;;8.40;76.00;;;;;;5035283;28;20032;-82
2023/04/08 07:59:31;;;;;;;6.28;4.85;;;8.50;76.00;;;;;;5034526;28;20036;-81
2023/04/08 08:01:56;;;;;;;6.32;5.15;;;8.50;76.00;;;;;;5018382;28;20030;-83
2023/04/08 08:04:24;;;;;;;5.90;5.05;;;8.50;76.00;;;;;;5018647;28;20034;-84
2023/04/08 08:06:50;;;;;;;6.63;5.38;;;8.50;76.00;;;;;;5035175;28;20040;-83
2023/04/08 08:09:26;;;;;;;6.10;4.88;;;8.50;76.00;;;;;;5019780;28;20095;-83
2023/04/08 08:11:52;;;;;;;6.15;4.93;;;8.50;76.00;;;;;;5034432;28;20041;-83
2023/04/08 08:14:21;;;;;;;6.30;5.13;;;8.50;76.00;;;;;;5018225;28;20017;-82
2023/04/08 08:16:48;;;;;;;6.65;5.10;;;8.50;76.00;;;;;;5002321;28;20120;-85
2023/04/08 08:19:14;;;;;;;6.70;5.25;;;8.60;76.10;;;;;;5019248;28;20029;-87
2023/04/08 08:21:40;;;;;;;6.90;5.40;;;8.60;76.10;;;;;;5017225;28;20032;-84
2023/04/08 08:24:06;;;;;;;5.82;5.22;;;8.60;76.10;;;;;;5018114;28;20032;-83
2023/04/08 08:26:35;;;;;;;6.07;5.30;;;8.60;76.00;;;;;;5017618;28;20055;-83
2023/04/08 08:29:02;;;;;;;6.53;5.22;;;8.60;76.10;;;;;;5035165;28;20033;-86
2023/04/08 08:31:27;;;;;;;6.63;5.18;;;8.60;76.00;;;;;;5033790;28;20056;-85
2023/04/08 08:33:53;;;;;;;7.60;5.18;;;8.60;76.00;;;;;;5017566;28;20033;-85
2023/04/08 08:36:20;;;;;;;6.70;5.13;;;8.70;76.00;;;;;;5001946;28;20022;-84
2023/04/08 08:38:45;;;;;;;6.20;5.10;;;8.70;76.00;;;;;;5033795;28;20044;-84
2023/04/08 08:41:11;;;;;;;6.10;4.88;;;8.70;76.00;;;;;;5033565;28;20025;-84
2023/04/08 08:43:37;;;;;;;5.57;4.57;;;8.70;75.90;;;;;;5017555;28;20021;-84
2023/04/08 08:46:03;;;;;;;6.00;4.88;;;8.80;75.90;;;;;;5001683;28;20044;-84
2023/04/08 08:48:32;;;;;;;5.80;4.97;;;8.90;75.90;;;;;;5018052;28;20033;-86
2023/04/08 08:51:01;;;;;;;5.78;4.70;;;8.80;75.80;;;;;;5033701;28;20048;-84
2023/04/08 08:53:30;;;;;;;6.20;5.05;;;8.90;75.80;;;;;;5017878;28;20041;-83
2023/04/08 08:55:57;;;;;;;6.03;4.70;;;8.90;75.80;;;;;;5017631;28;20112;-86
2023/04/08 08:58:28;;;;;;;5.93;4.72;;;9.00;75.80;;;;;;5017703;28;20432;-85
2023/04/08 09:01:24;;;;;;;6.85;5.15;;;9.00;75.80;;;;;;5034044;28;20040;-86
2023/04/08 09:04:12;;;;;;;5.63;4.43;;;9.10;75.70;;;;;;5009951;28;20181;-85
2023/04/08 09:06:40;;;;;;;5.68;4.05;;;9.20;75.70;;;;;;5017235;28;20029;-84
2023/04/08 09:09:09;;;;;;;5.90;4.78;;;9.20;75.50;;;;;;5034216;28;20028;-82
2023/04/08 09:11:46;;;;;;;6.18;4.68;;;9.30;75.50;;;;;;5033173;28;20358;-88
2023/04/08 09:14:25;;;;;;;5.88;4.53;;;9.30;75.40;;;;;;5017057;28;20037;-83
2023/04/08 09:16:51;;;;;;;5.65;4.05;;;9.40;75.50;;;;;;5034702;28;20026;-88
2023/04/08 09:19:19;;;;;;;5.85;5.07;;;9.40;75.30;;;;;;5033909;28;20151;-88
2023/04/08 09:22:08;;;;;;;5.65;4.63;;;9.50;75.30;;;;;;5017738;28;20112;-87
2023/04/08 09:24:45;;;;;;;5.82;4.57;;;9.50;75.30;;;;;;5019173;28;20029;-84
2023/04/08 09:27:23;;;;;;;;;;;;;;;;;;;;;
2023/04/08 09:30:20;;;;;;;6.10;4.82;;;9.70;75.20;;;;;;5019251;28;20140;-86
2023/04/08 09:32:51;;;;;;;5.22;4.45;;;9.70;75.20;;;;;;5033213;28;20163;-85
2023/04/08 09:35:21;;;;;;;5.80;4.47;;;9.80;75.10;;;;;;5018054;28;20486;-86
2023/04/08 09:37:50;;;;;;;5.65;4.60;;;9.90;75.10;;;;;;5016813;28;20039;-88
2023/04/08 09:40:18;;;;;;;5.85;4.75;;;9.90;75.10;;;;;;5016943;28;20059;-85
2023/04/08 09:42:53;;;;;;;5.40;4.43;;;10.00;75.30;;;;;;5032366;28;20037;-86
2023/04/08 09:45:20;;;;;;;5.70;4.53;;;10.10;75.10;;;;;;5033463;28;20025;-87
2023/04/08 09:48:11;;;;;;;6.13;4.35;;;10.10;75.00;;;;;;5016693;28;20057;-86
2023/04/08 09:51:08;;;;;;;5.22;4.25;;;10.20;75.00;;;;;;5033285;28;20113;-85
2023/04/08 09:53:44;;;;;;;6.03;4.43;;;10.30;75.00;;;;;;5016678;28;20057;-86
2023/04/08 09:56:20;;;;;;;6.18;4.88;;;10.40;74.90;;;;;;5033705;28;20033;-85
2023/04/08 09:59:12;;;;;;;6.10;4.55;;;10.50;75.60;;;;;;5019987;28;20044;-87
2023/04/08 10:01:56;;;;;;;6.38;5.10;;;10.60;75.00;;;;;;5017511;28;20405;-87
2023/04/08 10:04:37;;;;;;;6.03;4.78;;;10.70;74.90;;;;;;5017611;28;20053;-86
2023/04/08 10:07:24;;;;;;;7.43;5.70;;;10.80;75.00;;;;;;5033915;28;20037;-86
2023/04/08 10:09:53;;;;;;;6.85;5.68;;;10.90;74.90;;;;;;5016980;28;20443;-87
2023/04/08 10:12:19;;;;;;;6.20;5.15;;;11.00;74.90;;;;;;5015849;28;20040;-87
2023/04/08 10:15:42;;;;;;;7.07;5.68;;;11.10;74.90;;;;;;5032500;28;20424;-85
2023/04/08 10:18:20;;;;;;;6.53;5.40;;;11.20;75.00;;;;;;5003484;28;20121;-87
2023/04/08 10:20:52;;;;;;;7.15;6.00;;;11.30;74.80;;;;;;5033827;28;20073;-87
2023/04/08 10:23:55;;;;;;;8.07;6.28;;;11.40;74.80;;;;;;5033435;28;20030;-87
2023/04/08 10:26:33;;;;;;;7.10;5.85;;;11.50;75.00;;;;;;5032614;28;20028;-88
2023/04/08 10:29:20;;;;;;;6.80;5.93;;;11.60;74.80;;;;;;5016392;28;20438;-88
2023/04/08 10:31:59;;;;;;;;;;;;;;;;;;;;;
2023/04/08 10:34:38;;;;;;;6.65;5.75;;;11.80;74.70;;;;;;5032998;28;20029;-87
2023/04/08 10:37:05;;;;;;;7.38;6.50;;;11.90;74.70;;;;;;5017454;28;20091;-89
2023/04/08 10:39:31;;;;;;;6.88;5.90;;;12.00;74.70;;;;;;5016679;28;20021;-88
2023/04/08 10:41:56;;;;;;;9.18;6.43;;;12.10;74.60;;;;;;5016106;28;20121;-84
2023/04/08 10:44:26;;;;;;;7.68;6.20;;;12.20;74.70;;;;;;5032106;28;20033;-85
2023/04/08 10:46:53;;;;;;;7.40;6.22;;;12.30;74.70;;;;;;5032917;28;20447;-85
2023/04/08 10:49:20;;;;;;;7.32;6.28;;;12.40;74.60;;;;;;5032436;28;20053;-85
2023/04/08 10:51:48;;;;;;;7.07;5.88;;;12.50;74.50;;;;;;5033566;28;20071;-86
2023/04/08 10:54:23;;;;;;;7.65;6.00;;;12.60;74.50;;;;;;5015958;28;20033;-87
2023/04/08 10:56:52;;;;;;;7.00;6.00;;;12.70;74.50;;;;;;5017551;28;20026;-86
2023/04/08 10:59:33;;;;;;;6.68;5.63;;;12.70;74.40;;;;;;5018587;28;20022;-85
2023/04/08 11:02:00;;;;;;;7.05;6.05;;;12.90;74.60;;;;;;5036832;28;20478;-86
2023/04/08 11:04:31;;;;;;;7.50;6.32;;;12.90;74.30;;;;;;5019930;28;20037;-89
2023/04/08 11:07:14;;;;;;;;;;;;;;;;;;;;;
2023/04/08 11:09:42;;;;;;;7.22;5.65;;;13.10;74.40;;;;;;5038478;28;20036;-86
2023/04/08 11:12:17;;;;;;;7.78;6.40;;;13.20;74.40;;;;;;5038265;28;20033;-85
2023/04/08 11:14:43;;;;;;;;;;;13.30;74.50;;;;;;5038834;28;20053;-86
2023/04/08 11:17:17;;;;;;;5.95;4.90;;;13.30;74.20;;;;;;5022183;28;19912;-86
2023/04/08 11:19:45;;;;;;;7.57;5.35;;;13.40;74.20;;;;;;5038643;28;20483;-87
2023/04/08 11:22:16;;;;;;;6.38;5.45;;;13.50;74.30;;;;;;5038813;28;20025;-86
2023/04/08 11:24:47;;;;;;;6.47;5.57;;;13.60;74.50;;;;;;5021402;28;20088;-87
2023/04/08 11:27:24;;;;;;;;;;;;;;;;;;;;;
2023/04/08 11:29:55;;;;;;;6.53;5.45;;;13.70;74.60;;;;;;5039128;28;20033;-85
2023/04/08 11:32:31;;;;;;;6.82;5.85;;;13.80;74.60;;;;;;5020804;28;20053;-89
2023/04/08 11:35:13;;;;;;;6.72;5.70;;;13.90;74.60;;;;;;5023351;28;20120;-88
2023/04/08 11:38:11;;;;;;;6.80;5.53;;;14.00;74.60;;;;;;5022761;28;20121;-87
2023/04/08 11:40:58;;;;;;;7.43;6.00;;;14.10;75.30;;;;;;5037742;28;20056;-88
2023/04/08 11:44:10;;;;;;;6.65;5.60;;;14.20;74.70;;;;;;5037717;28;20034;-87
2023/04/08 11:46:51;;;;;;;6.32;4.93;;;14.20;74.70;;;;;;5021014;28;20044;-87
2023/04/08 11:49:19;;;;;;;6.55;5.43;;;14.30;74.50;;;;;;5037796;28;20053;-87
2023/04/08 11:52:06;;;;;;;6.80;5.55;;;14.40;74.50;;;;;;5022151;28;20035;-87
2023/04/08 11:54:39;;;;;;;5.43;4.72;;;14.40;74.60;;;;;;5038136;28;20064;-87
2023/04/08 11:57:26;;;;;;;6.97;5.63;;;14.50;74.50;;;;;;5008644;28;20140;-86
2023/04/08 12:00:37;;;;;;;6.28;5.22;;;14.60;74.50;;;;;;5036817;28;20061;-88
2023/04/08 12:03:13;;;;;;;6.13;4.97;;;14.70;74.60;;;;;;5036808;28;20030;-86
2023/04/08 12:05:55;;;;;;;6.40;5.10;;;14.70;74.50;;;;;;5023247;28;20038;-87
2023/04/08 12:11:23;;;;;;;5.70;4.57;;;14.90;74.50;;;;;;5036349;28;20045;-87
2023/04/08 12:14:28;;;;;;;;;;;;;;;;;;;;;
2023/04/08 12:17:09;;;;;;;5.72;4.93;;;15.00;74.60;;;;;;5023019;28;20022;-86
2023/04/08 12:19:38;;;;;;;6.85;5.32;;;15.00;74.50;;;;;;5021039;28;20103;-89
2023/04/08 12:22:12;;;;;;;6.15;5.18;;;15.10;74.50;;;;;;5037013;28;20033;-87
2023/04/08 12:24:41;;;;;;;6.82;4.90;;;15.10;74.60;;;;;;5004064;28;20033;-90
2023/04/08 12:27:29;;;;;;;5.47;4.65;;;15.10;74.60;;;;;;5036546;28;20042;-88
2023/04/08 12:30:04;;;;;;;6.20;4.93;;;15.20;74.70;;;;;;5004987;28;20041;-89
2023/04/08 12:32:46;;;;;;;;;;;;;;;;;;;;;
2023/04/08 12:35:42;;;;;;;5.30;4.38;;;15.30;74.60;;;;;;5023511;28;20041;-91
2023/04/08 12:38:24;;;;;;;6.35;4.60;;;15.30;74.60;;;;;;5021928;28;20057;-87
2023/04/08 12:40:56;;;;;;;5.60;4.60;;;15.40;74.70;;;;;;5020244;28;20048;-87
2023/04/08 12:43:31;;;;;;;6.13;4.60;;;15.40;74.70;;;;;;5020372;28;20109;-89
2023/04/08 12:46:47;;;;;;;5.88;4.65;;;15.50;74.70;;;;;;5037021;28;20037;-87
2023/04/08 12:49:35;;;;;;;6.35;5.22;;;15.50;74.70;;;;;;5023587;28;20053;-89
2023/04/08 12:52:14;;;;;;;5.97;4.90;;;15.60;74.70;;;;;;5021815;28;20118;-87
2023/04/08 12:54:45;;;;;;;5.97;4.43;;;15.60;74.60;;;;;;5019677;28;20107;-87
2023/04/08 12:57:33;;;;;;;;;;;;;;;;;;;;;
2023/04/08 13:00:14;;;;;;;4.90;4.00;;;15.70;74.60;;;;;;5036413;28;20026;-88
2023/04/08 13:03:34;;;;;;;5.35;4.38;;;15.80;74.60;;;;;;5008282;28;20036;-90
2023/04/08 13:06:14;;;;;;;5.15;4.13;;;15.80;74.60;;;;;;5020841;28;20067;-87
2023/04/08 13:09:37;;;;;;;;;;;;;;;;;;;;;
2023/04/08 13:12:24;;;;;;;5.10;4.10;;;15.90;74.40;;;;;;5036173;28;20448;-93
2023/04/08 13:15:12;;;;;;;5.32;4.15;;;16.00;74.30;;;;;;5003976;28;20100;-87
2023/04/08 13:17:41;;;;;;;4.82;3.80;;;16.00;74.30;;;;;;5036459;28;20028;-86
2023/04/08 13:20:40;;;;;;;;;;;;;;;;;;;;;
2023/04/08 13:23:16;;;;;;;5.38;4.30;;;16.10;74.30;;;;;;5035199;28;20026;-86
2023/04/08 13:25:48;;;;;;;5.53;4.40;;;16.20;74.20;;;;;;5020101;28;20095;-86
2023/04/08 13:28:14;;;;;;;4.82;4.20;;;16.20;74.20;;;;;;5035064;28;20033;-87